sensor_id;sensor_type;location;lat;lon;timestamp;temperature;humidity
36790;DHT22;22740;52.182;8.780;2023-04-08T00:04:49;5.60;99.90
36790;DHT22;22740;52.182;8.780;2023-04-08T00:10:51;5.60;99.90
36790;DHT22;22740;52.182;8.780;2023-04-08T00:16:53;5.60;99.90
36790;DHT22;22740;52.182;8.780;2023-04-08T00:22:55;5.70;99.90
36790;DHT22;22740;52.182;8.780;2023-04-08T00:28:57;5.80;99.90
36790;DHT22;22740;52.182;8.780;2023-04-08T00:34:59;5.90;99.90
36790;DHT22;22740;52.182;8.780;2023-04-08T00:41:01;6.00;99.90
36790;DHT22;22740;52.182;8.780;2023-04-08T00:47:03;5.80;99.90
36790;DHT22;22740;52.182;8.780;2023-04-08T00:53:05;5.70;99.90
36790;DHT22;22740;52.182;8.780;2023-04-08T00:59:07;5.80;99.90
36790;DHT22;22740;52.182;8.780;2023-04-08T01:05:17;5.80;99.90
36790;DHT22;22740;52.182;8.780;2023-04-08T01:11:21;5.80;99.90
36790;DHT22;22740;52.182;8.780;2023-04-08T01:17:23;6.00;99.90
36790;DHT22;22740;52.182;8.780;2023-04-08T01:23:32;5.90;99.90
36790;DHT22;22740;52.182;8.780;2023-04-08T01:29:38;5.90;99.90
36790;DHT22;22740;52.182;8.780;2023-04-08T01:35:40;5.90;99.90
36790;DHT22;22740;52.182;8.780;2023-04-08T01:41:42;5.90;99.90
36790;DHT22;22740;52.182;8.780;2023-04-08T01:47:45;5.90;99.90
36790;DHT22;22740;52.182;8.780;2023-04-08T01:53:48;5.90;99.90
36790;DHT22;22740;52.182;8.780;2023-04-08T01:59:51;5.90;99.90
36790;DHT22;22740;52.182;8.780;2023-04-08T02:05:54;5.80;99.90
36790;DHT22;22740;52.182;8.780;2023-04-08T02:11:57;5.90;99.90
36790;DHT22;22740;52.182;8.780;2023-04-08T02:18:08;5.90;99.90
36790;DHT22;22740;52.182;8.780;2023-04-08T02:24:13;5.90;99.90
36790;DHT22;22740;52.182;8.780;2023-04-08T02:30:16;5.80;99.90
36790;DHT22;22740;52.182;8.780;2023-04-08T02:36:19;5.80;99.90
36790;DHT22;22740;52.182;8.780;2023-04-08T02:42:21;5.80;99.90
36790;DHT22;22740;52.182;8.780;2023-04-08T02:48:23;5.80;99.90
36790;DHT22;22740;52.182;8.780;2023-04-08T02:54:25;5.80;99.90
36790;DHT22;22740;52.182;8.780;2023-04-08T03:00:26;5.80;99.90
36790;DHT22;22740;52.182;8.780;2023-04-08T03:06:28;5.70;99.90
36790;DHT22;22740;52.182;8.780;2023-04-08T03:12:30;5.80;99.90
36790;DHT22;22740;52.182;8.780;2023-04-08T03:18:32;5.90;99.90
36790;DHT22;22740;52.182;8.780;2023-04-08T03:24:35;5.80;99.90
36790;DHT22;22740;52.182;8.780;2023-04-08T03:30:37;5.70;99.90
36790;DHT22;22740;52.182;8.780;2023-04-08T03:36:38;5.60;99.90
36790;DHT22;22740;52.182;8.780;2023-04-08T03:42:40;5.60;99.90
36790;DHT22;22740;52.182;8.780;2023-04-08T03:48:42;5.50;99.90
36790;DHT22;22740;52.182;8.780;2023-04-08T03:54:44;5.50;99.90
36790;DHT22;22740;52.182;8.780;2023-04-08T04:00:46;5.50;99.90
36790;DHT22;22740;52.182;8.780;2023-04-08T04:06:48;5.50;99.90
36790;DHT22;22740;52.182;8.780;2023-04-08T04:12:50;5.70;99.90
36790;DHT22;22740;52.182;8.780;2023-04-08T04:18:52;5.70;99.90
36790;DHT22;22740;52.182;8.780;2023-04-08T04:24:55;5.80;99.90
36790;DHT22;22740;52.182;8.780;2023-04-08T04:30:57;6.00;99.90
36790;DHT22;22740;52.182;8.780;2023-04-08T04:36:58;5.90;99.90
36790;DHT22;22740;52.182;8.780;2023-04-08T04:43:01;5.80;99.90
36790;DHT22;22740;52.182;8.780;2023-04-08T04:49:03;5.60;99.90
36790;DHT22;22740;52.182;8.780;2023-04-08T04:55:05;5.50;99.90
36790;DHT22;22740;52.182;8.780;2023-04-08T05:01:07;5.50;99.90
36790;DHT22;22740;52.182;8.780;2023-04-08T05:07:09;5.50;99.90
36790;DHT22;22740;52.182;8.780;2023-04-08T05:13:11;5.70;99.90
36790;DHT22;22740;52.182;8.780;2023-04-08T05:19:13;5.60;99.90
36790;DHT22;22740;52.182;8.780;2023-04-08T05:25:15;5.70;99.90
36790;DHT22;22740;52.182;8.780;2023-04-08T05:31:19;5.60;99.90
36790;DHT22;22740;52.182;8.780;2023-04-08T05:37:22;5.50;99.90
36790;DHT22;22740;52.182;8.780;2023-04-08T05:43:24;5.50;99.90
36790;DHT22;22740;52.182;8.780;2023-04-08T05:49:26;5.60;99.90
36790;DHT22;22740;52.182;8.780;2023-04-08T05:55:28;5.50;99.90
36790;DHT22;22740;52.182;8.780;2023-04-08T06:01:30;5.50;99.90
36790;DHT22;22740;52.182;8.780;2023-04-08T06:07:33;5.60;99.90
36790;DHT22;22740;52.182;8.780;2023-04-08T06:13:35;5.60;99.90
36790;DHT22;22740;52.182;8.780;2023-04-08T06:19:38;5.70;99.90
36790;DHT22;22740;52.182;8.780;2023-04-08T06:25:39;5.60;99.90
36790;DHT22;22740;52.182;8.780;2023-04-08T06:31:42;5.70;99.90
36790;DHT22;22740;52.182;8.780;2023-04-08T06:37:44;5.70;99.90
36790;DHT22;22740;52.182;8.780;2023-04-08T06:43:46;5.80;99.90
36790;DHT22;22740;52.182;8.780;2023-04-08T06:49:48;5.90;99.90
36790;DHT22;22740;52.182;8.780;2023-04-08T06:55:50;6.00;99.90
36790;DHT22;22740;52.182;8.780;2023-04-08T07:01:52;5.90;99.90
36790;DHT22;22740;52.182;8.780;2023-04-08T07:07:55;6.00;99.90
36790;DHT22;22740;52.182;8.780;2023-04-08T07:13:57;6.20;99.90
36790;DHT22;22740;52.182;8.780;2023-04-08T07:19:59;6.00;99.90
36790;DHT22;22740;52.182;8.780;2023-04-08T07:26:04;6.10;99.90
36790;DHT22;22740;52.182;8.780;2023-04-08T07:32:06;6.10;99.90
36790;DHT22;22740;52.182;8.780;2023-04-08T07:38:08;6.30;99.90
36790;DHT22;22740;52.182;8.780;2023-04-08T07:44:12;6.40;99.90
36790;DHT22;22740;52.182;8.780;2023-04-08T07:50:17;6.30;99.90
36790;DHT22;22740;52.182;8.780;2023-04-08T07:56:19;6.30;99.90
36790;DHT22;22740;52.182;8.780;2023-04-08T08:02:23;6.30;99.90
36790;DHT22;22740;52.182;8.780;2023-04-08T08:08:25;6.40;99.90
36790;DHT22;22740;52.182;8.780;2023-04-08T08:14:28;7.00;99.90
36790;DHT22;22740;52.182;8.780;2023-04-08T08:20:30;7.50;99.90
36790;DHT22;22740;52.182;8.780;2023-04-08T08:26:35;7.60;99.90
36790;DHT22;22740;52.182;8.780;2023-04-08T08:32:39;7.50;99.90
36790;DHT22;22740;52.182;8.780;2023-04-08T08:38:42;7.40;99.90
36790;DHT22;22740;52.182;8.780;2023-04-08T08:44:43;7.30;99.90
36790;DHT22;22740;52.182;8.780;2023-04-08T08:50:46;7.40;99.90
36790;DHT22;22740;52.182;8.780;2023-04-08T08:56:48;7.20;99.90
36790;DHT22;22740;52.182;8.780;2023-04-08T09:02:50;7.70;99.90
36790;DHT22;22740;52.182;8.780;2023-04-08T09:08:52;8.00;99.90
36790;DHT22;22740;52.182;8.780;2023-04-08T09:15:07;7.80;99.90
36790;DHT22;22740;52.182;8.780;2023-04-08T09:21:10;7.60;99.90
36790;DHT22;22740;52.182;8.780;2023-04-08T09:27:13;7.80;99.90
36790;DHT22;22740;52.182;8.780;2023-04-08T09:33:15;8.00;99.90
36790;DHT22;22740;52.182;8.780;2023-04-08T09:39:17;8.10;99.90
36790;DHT22;22740;52.182;8.780;2023-04-08T09:45:19;8.20;99.90
36790;DHT22;22740;52.182;8.780;2023-04-08T09:51:23;8.00;99.90
36790;DHT22;22740;52.182;8.780;2023-04-08T10:03:53;7.60;99.90
36790;DHT22;22740;52.182;8.780;2023-04-08T10:09:56;8.00;99.90
36790;DHT22;22740;52.182;8.780;2023-04-08T10:16:22;7.80;99.90
36790;DHT22;22740;52.182;8.780;2023-04-08T10:28:35;8.00;99.90
36790;DHT22;22740;52.182;8.780;2023-04-08T10:34:50;7.80;99.90
36790;DHT22;22740;52.182;8.780;2023-04-08T10:40:53;8.00;99.90
36790;DHT22;22740;52.182;8.780;2023-04-08T10:46:55;8.20;99.90
36790;DHT22;22740;52.182;8.780;2023-04-08T10:52:57;8.20;99.90
36790;DHT22;22740;52.182;8.780;2023-04-08T10:58:59;8.20;99.90
36790;DHT22;22740;52.182;8.780;2023-04-08T11:05:01;8.20;99.90
36790;DHT22;22740;52.182;8.780;2023-04-08T11:11:05;8.40;99.90
36790;DHT22;22740;52.182;8.780;2023-04-08T11:17:14;8.60;99.90
36790;DHT22;22740;52.182;8.780;2023-04-08T11:23:17;8.40;99.90
36790;DHT22;22740;52.182;8.780;2023-04-08T11:29:19;8.50;99.90
36790;DHT22;22740;52.182;8.780;2023-04-08T11:35:22;8.30;99.90
36790;DHT22;22740;52.182;8.780;2023-04-08T11:41:35;8.50;99.90
36790;DHT22;22740;52.182;8.780;2023-04-08T11:47:38;8.80;99.90
36790;DHT22;22740;52.182;8.780;2023-04-08T11:53:40;9.40;99.90
36790;DHT22;22740;52.182;8.780;2023-04-08T11:59:41;9.40;99.90
36790;DHT22;22740;52.182;8.780;2023-04-08T12:05:43;9.30;99.90
36790;DHT22;22740;52.182;8.780;2023-04-08T12:11:45;9.10;99.90
36790;DHT22;22740;52.182;8.780;2023-04-08T12:17:47;8.90;99.90
36790;DHT22;22740;52.182;8.780;2023-04-08T12:23:50;8.80;99.90
36790;DHT22;22740;52.182;8.780;2023-04-08T12:29:54;8.70;99.90
36790;DHT22;22740;52.182;8.780;2023-04-08T12:35:56;9.00;99.90
36790;DHT22;22740;52.182;8.780;2023-04-08T12:42:01;9.20;99.90
36790;DHT22;22740;52.182;8.780;2023-04-08T12:48:03;9.20;99.90
36790;DHT22;22740;52.182;8.780;2023-04-08T12:54:05;9.30;99.90
36790;DHT22;22740;52.182;8.780;2023-04-08T13:00:08;9.50;99.90
36790;DHT22;22740;52.182;8.780;2023-04-08T13:06:11;9.40;99.90
36790;DHT22;22740;52.182;8.780;2023-04-08T13:12:13;9.20;99.90
36790;DHT22;22740;52.182;8.780;2023-04-08T13:18:16;8.90;99.90
36790;DHT22;22740;52.182;8.780;2023-04-08T13:24:18;8.90;99.90
36790;DHT22;22740;52.182;8.780;2023-04-08T13:30:20;9.20;99.90
36790;DHT22;22740;52.182;8.780;2023-04-08T13:36:24;8.80;99.90
36790;DHT22;22740;52.182;8.780;2023-04-08T13:42:29;8.80;99.90
36790;DHT22;22740;52.182;8.780;2023-04-08T13:48:34;9.30;99.90
36790;DHT22;22740;52.182;8.780;2023-04-08T13:54:36;9.30;99.90
36790;DHT22;22740;52.182;8.780;2023-04-08T14:00:38;9.00;99.90
36790;DHT22;22740;52.182;8.780;2023-04-08T14:06:40;8.80;99.90
36790;DHT22;22740;52.182;8.780;2023-04-08T14:12:42;8.90;99.90
36790;DHT22;22740;52.182;8.780;2023-04-08T14:18:45;8.80;99.90
36790;DHT22;22740;52.182;8.780;2023-04-08T14:24:47;8.80;99.90
36790;DHT22;22740;52.182;8.780;2023-04-08T14:30:49;8.90;99.90
36790;DHT22;22740;52.182;8.780;2023-04-08T14:36:51;8.80;99.90
36790;DHT22;22740;52.182;8.780;2023-04-08T14:42:52;8.90;99.90
36790;DHT22;22740;52.182;8.780;2023-04-08T14:48:55;8.80;99.90
36790;DHT22;22740;52.182;8.780;2023-04-08T14:54:56;8.80;99.90
36790;DHT22;22740;52.182;8.780;2023-04-08T15:00:58;9.00;99.90
36790;DHT22;22740;52.182;8.780;2023-04-08T15:07:00;9.10;99.90
36790;DHT22;22740;52.182;8.780;2023-04-08T15:13:03;9.40;99.90
36790;DHT22;22740;52.182;8.780;2023-04-08T15:19:05;9.50;99.90
36790;DHT22;22740;52.182;8.780;2023-04-08T15:25:07;9.70;99.90
36790;DHT22;22740;52.182;8.780;2023-04-08T15:31:09;9.30;99.90
36790;DHT22;22740;52.182;8.780;2023-04-08T15:37:13;9.30;99.90
36790;DHT22;22740;52.182;8.780;2023-04-08T15:43:15;9.30;99.90
36790;DHT22;22740;52.182;8.780;2023-04-08T15:49:17;9.30;99.90
36790;DHT22;22740;52.182;8.780;2023-04-08T15:55:19;9.00;99.90
36790;DHT22;22740;52.182;8.780;2023-04-08T16:01:21;8.90;99.90
36790;DHT22;22740;52.182;8.780;2023-04-08T16:07:23;8.80;99.90
36790;DHT22;22740;52.182;8.780;2023-04-08T16:13:26;8.70;99.90
36790;DHT22;22740;52.182;8.780;2023-04-08T16:19:29;8.70;99.90
36790;DHT22;22740;52.182;8.780;2023-04-08T16:25:31;8.70;99.90
36790;DHT22;22740;52.182;8.780;2023-04-08T16:31:33;8.70;99.90
36790;DHT22;22740;52.182;8.780;2023-04-08T16:37:35;8.60;99.90
36790;DHT22;22740;52.182;8.780;2023-04-08T16:43:37;8.50;99.90
36790;DHT22;22740;52.182;8.780;2023-04-08T16:49:39;8.40;99.90
36790;DHT22;22740;52.182;8.780;2023-04-08T16:55:41;8.40;99.90
36790;DHT22;22740;52.182;8.780;2023-04-08T17:01:42;8.40;99.90
36790;DHT22;22740;52.182;8.780;2023-04-08T17:07:45;8.40;99.90
36790;DHT22;22740;52.182;8.780;2023-04-08T17:13:46;8.30;99.90
36790;DHT22;22740;52.182;8.780;2023-04-08T17:19:48;8.30;99.90
36790;DHT22;22740;52.182;8.780;2023-04-08T17:25:50;8.20;99.90
36790;DHT22;22740;52.182;8.780;2023-04-08T17:31:54;8.10;99.90
36790;DHT22;22740;52.182;8.780;2023-04-08T17:37:56;8.10;99.90
36790;DHT22;22740;52.182;8.780;2023-04-08T17:43:58;8.10;99.90
36790;DHT22;22740;52.182;8.780;2023-04-08T17:49:59;8.00;99.90
36790;DHT22;22740;52.182;8.780;2023-04-08T17:56:01;7.90;99.90
36790;DHT22;22740;52.182;8.780;2023-04-08T18:02:04;8.00;99.90
36790;DHT22;22740;52.182;8.780;2023-04-08T18:08:06;8.00;99.90
36790;DHT22;22740;52.182;8.780;2023-04-08T18:14:08;7.90;99.90
36790;DHT22;22740;52.182;8.780;2023-04-08T18:20:10;7.90;99.90
36790;DHT22;22740;52.182;8.780;2023-04-08T18:26:12;7.80;99.90
36790;DHT22;22740;52.182;8.780;2023-04-08T18:32:14;7.80;99.90
36790;DHT22;22740;52.182;8.780;2023-04-08T18:38:16;7.90;99.90
36790;DHT22;22740;52.182;8.780;2023-04-08T18:44:18;7.90;99.90
36790;DHT22;22740;52.182;8.780;2023-04-08T18:50:21;7.80;99.90
36790;DHT22;22740;52.182;8.780;2023-04-08T18:56:23;7.80;99.90
36790;DHT22;22740;52.182;8.780;2023-04-08T19:02:25;7.80;99.90
36790;DHT22;22740;52.182;8.780;2023-04-08T19:08:27;7.70;99.90
36790;DHT22;22740;52.182;8.780;2023-04-08T19:14:29;7.70;99.90
36790;DHT22;22740;52.182;8.780;2023-04-08T19:20:31;7.70;99.90
36790;DHT22;22740;52.182;8.780;2023-04-08T19:26:34;7.80;99.90
36790;DHT22;22740;52.182;8.780;2023-04-08T19:32:37;7.80;99.90
36790;DHT22;22740;52.182;8.780;2023-04-08T19:38:39;7.70;99.90
36790;DHT22;22740;52.182;8.780;2023-04-08T19:44:41;7.70;99.90
36790;DHT22;22740;52.182;8.780;2023-04-08T19:50:42;7.60;99.90
36790;DHT22;22740;52.182;8.780;2023-04-08T19:56:44;7.60;99.90
36790;DHT22;22740;52.182;8.780;2023-04-08T20:02:46;7.60;99.90
36790;DHT22;22740;52.182;8.780;2023-04-08T20:08:50;7.60;99.90
36790;DHT22;22740;52.182;8.780;2023-04-08T20:14:53;7.50;99.90
36790;DHT22;22740;52.182;8.780;2023-04-08T20:20:55;7.50;99.90
36790;DHT22;22740;52.182;8.780;2023-04-08T20:26:57;7.30;99.90
36790;DHT22;22740;52.182;8.780;2023-04-08T20:33:00;7.10;99.90
36790;DHT22;22740;52.182;8.780;2023-04-08T20:39:03;6.90;99.90
36790;DHT22;22740;52.182;8.780;2023-04-08T20:45:05;6.80;99.90
36790;DHT22;22740;52.182;8.780;2023-04-08T20:51:07;6.60;99.90
36790;DHT22;22740;52.182;8.780;2023-04-08T20:57:10;6.50;99.90
36790;DHT22;22740;52.182;8.780;2023-04-08T21:03:12;6.50;99.90
36790;DHT22;22740;52.182;8.780;2023-04-08T21:09:14;6.40;99.90
36790;DHT22;22740;52.182;8.780;2023-04-08T21:15:17;6.40;99.90
36790;DHT22;22740;52.182;8.780;2023-04-08T21:21:18;6.40;99.90
36790;DHT22;22740;52.182;8.780;2023-04-08T21:27:21;6.20;99.90
36790;DHT22;22740;52.182;8.780;2023-04-08T21:33:23;6.00;99.90
36790;DHT22;22740;52.182;8.780;2023-04-08T21:39:25;6.00;99.90
36790;DHT22;22740;52.182;8.780;2023-04-08T21:45:27;5.90;99.90
36790;DHT22;22740;52.182;8.780;2023-04-08T21:51:29;5.80;99.90
36790;DHT22;22740;52.182;8.780;2023-04-08T21:57:31;5.50;99.90
36790;DHT22;22740;52.182;8.780;2023-04-08T22:03:33;5.50;99.90
36790;DHT22;22740;52.182;8.780;2023-04-08T22:09:35;5.40;99.90
36790;DHT22;22740;52.182;8.780;2023-04-08T22:15:37;5.40;99.90
36790;DHT22;22740;52.182;8.780;2023-04-08T22:21:39;5.30;99.90
36790;DHT22;22740;52.182;8.780;2023-04-08T22:27:40;5.30;99.90
36790;DHT22;22740;52.182;8.780;2023-04-08T22:33:42;5.20;99.90
36790;DHT22;22740;52.182;8.780;2023-04-08T22:39:44;5.10;99.90
36790;DHT22;22740;52.182;8.780;2023-04-08T22:45:46;5.00;99.90
36790;DHT22;22740;52.182;8.780;2023-04-08T22:51:48;5.00;99.90
36790;DHT22;22740;52.182;8.780;2023-04-08T22:57:50;5.00;99.90
36790;DHT22;22740;52.182;8.780;2023-04-08T23:03:53;4.90;99.90
36790;DHT22;22740;52.182;8.780;2023-04-08T23:09:55;4.80;99.90
36790;DHT22;22740;52.182;8.780;2023-04-08T23:15:57;4.70;99.90
36790;DHT22;22740;52.182;8.780;2023-04-08T23:21:59;4.80;99.90
36790;DHT22;22740;52.182;8.780;2023-04-08T23:28:01;4.70;99.90
36790;DHT22;22740;52.182;8.780;2023-04-08T23:34:03;4.80;99.90
36790;DHT22;22740;52.182;8.780;2023-04-08T23:40:05;4.70;99.90
36790;DHT22;22740;52.182;8.780;2023-04-08T23:46:08;4.70;99.90
36790;DHT22;22740;52.182;8.780;2023-04-08T23:52:10;4.60;99.90
36790;DHT22;22740;52.182;8.780;2023-04-08T23:58:12;4.60;99.90
